Time;durP1;ratioP1;P1;durP2;ratioP2;P2;SDS_P1;SDS_P2;PMS_P1;PMS_P2;Temp;Humidity;BMP_temperature;BMP_pressure;BME280_temperature;BME280_humidity;BME280_pressure;Samples;Min_cycle;Max_cycle;Signal;HPM_P1;HPM_P2
2022/03/16 00:01:13;;;;;;;4.72;4.28;;;19.40;41.20;;;;;;6191579;23;20199;-71
2022/03/16 00:03:40;;;;;;;4.53;4.13;;;19.40;41.20;;;;;;6218047;23;20614;-71
2022/03/16 00:06:06;;;;;;;5.35;4.95;;;19.40;41.20;;;;;;6192449;23;20271;-71
2022/03/16 00:08:34;;;;;;;5.30;4.82;;;19.40;41.20;;;;;;6193024;23;20203;-71
2022/03/16 00:11:01;;;;;;;4.95;4.53;;;19.40;41.20;;;;;;6192494;23;20249;-70
2022/03/16 00:13:31;;;;;;;4.90;4.50;;;19.40;41.80;;;;;;6191780;23;20179;-70
2022/03/16 00:15:58;;;;;;;4.85;4.40;;;19.40;41.20;;;;;;6192114;23;20175;-71
2022/03/16 00:18:25;;;;;;;5.07;4.68;;;19.30;41.20;;;;;;6192026;23;20195;-70
2022/03/16 00:20:52;;;;;;;5.10;4.70;;;19.30;41.20;;;;;;6192237;23;20171;-69
2022/03/16 00:23:19;;;;;;;5.10;4.70;;;19.30;41.20;;;;;;6191930;23;20195;-71
2022/03/16 00:25:46;;;;;;;5.90;5.40;;;19.30;41.20;;;;;;6192287;23;20234;-71
2022/03/16 00:28:14;;;;;;;5.53;5.05;;;19.30;41.10;;;;;;6192543;23;20183;-71
2022/03/16 00:30:42;;;;;;;5.75;5.32;;;19.30;41.20;;;;;;6218585;23;20637;-70
2022/03/16 00:33:11;;;;;;;5.22;4.80;;;19.30;41.20;;;;;;6220441;23;20199;-70
2022/03/16 00:35:38;;;;;;;5.60;5.10;;;19.20;41.10;;;;;;6194622;23;20179;-71
2022/03/16 00:38:05;;;;;;;6.03;5.57;;;19.20;41.20;;;;;;6193718;23;20645;-71
2022/03/16 00:40:34;;;;;;;6.05;5.55;;;19.20;41.20;;;;;;6219825;23;20163;-70
2022/03/16 00:43:03;;;;;;;6.00;5.50;;;19.20;41.70;;;;;;6192824;23;20198;-70
2022/03/16 00:45:31;;;;;;;5.88;5.47;;;19.20;41.20;;;;;;6193095;23;20176;-71
2022/03/16 00:47:59;;;;;;;7.00;6.40;;;19.20;41.30;;;;;;6192113;23;20618;-71
2022/03/16 00:50:27;;;;;;;6.05;5.55;;;19.20;41.20;;;;;;6192859;23;20210;-70
2022/03/16 00:52:55;;;;;;;6.15;5.50;;;19.20;41.20;;;;;;6194908;23;20496;-71
2022/03/16 00:55:22;;;;;;;6.65;6.10;;;19.20;41.30;;;;;;6204443;23;20171;-71
2022/03/16 00:57:50;;;;;;;7.13;6.43;;;19.20;41.30;;;;;;6196249;23;20185;-71
2022/03/16 01:00:17;;;;;;;6.75;6.20;;;19.10;41.20;;;;;;6193497;23;20252;-71
2022/03/16 01:02:45;;;;;;;7.13;6.53;;;19.10;41.20;;;;;;6192670;23;20242;-71
2022/03/16 01:05:13;;;;;;;8.45;7.70;;;19.10;41.20;;;;;;6192246;23;20175;-70
2022/03/16 01:07:40;;;;;;;7.43;6.82;;;19.10;41.30;;;;;;6192244;23;20222;-71
2022/03/16 01:10:08;;;;;;;8.00;7.30;;;19.10;41.20;;;;;;6192044;23;20187;-70
2022/03/16 01:12:36;;;;;;;7.25;6.65;;;19.10;41.20;;;;;;6192201;23;20559;-71
2022/03/16 01:15:04;;;;;;;6.43;5.93;;;19.10;41.20;;;;;;6191610;23;20178;-71
2022/03/16 01:17:32;;;;;;;6.90;6.32;;;19.10;41.30;;;;;;6191857;23;20263;-71
2022/03/16 01:19:59;;;;;;;6.35;5.85;;;19.10;41.40;;;;;;6191571;23;20196;-70
2022/03/16 01:22:28;;;;;;;6.95;6.25;;;19.10;41.40;;;;;;6191603;23;20201;-71
2022/03/16 01:24:55;;;;;;;7.13;6.53;;;19.00;41.30;;;;;;6191558;23;20171;-70
2022/03/16 01:27:22;;;;;;;6.65;6.05;;;19.10;42.10;;;;;;6191660;23;20199;-70
2022/03/16 01:29:50;;;;;;;6.35;5.75;;;19.10;41.40;;;;;;6191804;23;20195;-71
2022/03/16 01:32:17;;;;;;;7.28;6.68;;;19.00;41.40;;;;;;6191304;23;20250;-70
2022/03/16 01:34:46;;;;;;;7.05;6.35;;;19.00;41.40;;;;;;6191211;23;20198;-71
2022/03/16 01:37:16;;;;;;;6.53;5.97;;;19.00;41.40;;;;;;6218048;23;20160;-71
2022/03/16 01:39:45;;;;;;;6.72;6.13;;;19.00;41.40;;;;;;6191166;23;20271;-71
2022/03/16 01:42:12;;;;;;;6.72;6.22;;;19.00;41.40;;;;;;6191006;23;20716;-70
2022/03/16 01:44:45;;;;;;;6.43;5.93;;;19.00;41.40;;;;;;6191241;23;20233;-69
2022/03/16 01:47:12;;;;;;;5.90;5.40;;;19.00;41.50;;;;;;6191687;23;20195;-70
2022/03/16 01:49:40;;;;;;;6.53;6.00;;;19.00;41.50;;;;;;6190876;23;20199;-71
2022/03/16 01:52:08;;;;;;;5.30;4.90;;;19.00;41.50;;;;;;6191978;23;20207;-71
2022/03/16 01:54:36;;;;;;;5.85;5.38;;;19.00;41.60;;;;;;6191945;23;20499;-70
2022/03/16 01:57:05;;;;;;;5.57;5.05;;;19.00;41.50;;;;;;6192004;23;20172;-70
2022/03/16 01:59:33;;;;;;;6.30;5.80;;;19.00;41.60;;;;;;6190985;23;20222;-70
2022/03/16 02:02:01;;;;;;;6.15;5.65;;;19.00;41.60;;;;;;6186573;23;20535;-65
2022/03/16 02:04:30;;;;;;;5.65;5.20;;;18.90;41.50;;;;;;6157735;23;20192;-67
2022/03/16 02:06:57;;;;;;;6.00;5.50;;;19.00;41.60;;;;;;6159249;23;20165;-67
2022/03/16 02:09:24;;;;;;;5.63;5.13;;;18.90;41.60;;;;;;6157455;23;20168;-68
2022/03/16 02:11:52;;;;;;;5.65;5.20;;;19.00;41.60;;;;;;6157313;23;20173;-67
2022/03/16 02:14:21;;;;;;;5.72;5.32;;;18.90;42.20;;;;;;6157072;23;20208;-67
2022/03/16 02:16:49;;;;;;;6.30;5.80;;;18.90;41.50;;;;;;6157554;23;20263;-68
2022/03/16 02:19:16;;;;;;;5.32;4.93;;;18.90;41.60;;;;;;6158691;23;20172;-68
2022/03/16 02:21:46;;;;;;;5.85;5.25;;;18.90;41.60;;;;;;6157062;23;20207;-68
2022/03/16 02:24:15;;;;;;;6.20;5.70;;;18.90;41.60;;;;;;6158674;23;20197;-67
2022/03/16 02:26:42;;;;;;;6.38;5.88;;;18.90;41.60;;;;;;6159005;23;20260;-67
2022/03/16 02:29:09;;;;;;;6.50;5.90;;;18.90;41.60;;;;;;6159277;23;20603;-68
2022/03/16 02:31:37;;;;;;;6.50;6.00;;;18.80;41.50;;;;;;6158779;23;20172;-68
2022/03/16 02:34:05;;;;;;;6.07;5.57;;;18.90;41.60;;;;;;6158292;23;20209;-68
2022/03/16 02:36:57;;;;;;;6.57;6.07;;;18.80;41.60;;;;;;6160686;23;20272;-67
2022/03/16 02:39:26;;;;;;;5.72;5.32;;;18.80;41.60;;;;;;6159246;23;20235;-68
2022/03/16 02:41:53;;;;;;;5.80;5.30;;;18.80;41.60;;;;;;6158461;23;20172;-67
2022/03/16 02:44:21;;;;;;;6.05;5.55;;;18.80;41.60;;;;;;6158234;23;20227;-68
2022/03/16 02:46:49;;;;;;;5.60;5.10;;;18.80;41.60;;;;;;6160008;23;20168;-68
2022/03/16 02:49:17;;;;;;;5.75;5.32;;;18.80;41.60;;;;;;6157189;23;20595;-68
2022/03/16 02:51:44;;;;;;;6.88;6.35;;;18.80;41.60;;;;;;6157522;23;20176;-67
2022/03/16 02:54:11;;;;;;;6.53;6.03;;;18.80;41.60;;;;;;6156894;23;20227;-68
2022/03/16 02:56:41;;;;;;;6.25;5.70;;;18.80;41.70;;;;;;6158762;23;20169;-67
2022/03/16 02:59:08;;;;;;;5.57;5.18;;;18.80;41.70;;;;;;6156794;23;20498;-68
2022/03/16 03:01:36;;;;;;;5.72;5.30;;;18.80;41.70;;;;;;6159627;23;20278;-67
2022/03/16 03:04:03;;;;;;;6.25;5.75;;;18.80;41.70;;;;;;6188368;23;20199;-68
2022/03/16 03:06:31;;;;;;;6.20;5.70;;;18.80;41.70;;;;;;6170921;23;20211;-70
2022/03/16 03:08:58;;;;;;;6.72;6.20;;;18.80;41.70;;;;;;6163979;23;20271;-70
2022/03/16 03:11:27;;;;;;;6.10;5.60;;;18.70;41.60;;;;;;6163505;23;20622;-70
2022/03/16 03:13:56;;;;;;;6.45;5.95;;;18.70;41.70;;;;;;6136780;23;20256;-69
2022/03/16 03:16:23;;;;;;;6.22;5.72;;;18.70;41.70;;;;;;6135282;23;20616;-70
2022/03/16 03:18:53;;;;;;;6.28;5.75;;;18.70;41.70;;;;;;6161751;23;20264;-69
2022/03/16 03:21:21;;;;;;;6.15;5.65;;;18.70;41.80;;;;;;6134911;23;20180;-70
2022/03/16 03:23:47;;;;;;;6.47;5.95;;;18.70;41.80;;;;;;6134844;23;20203;-70
2022/03/16 03:26:15;;;;;;;6.47;5.97;;;18.70;41.70;;;;;;6132849;23;20177;-70
2022/03/16 03:28:42;;;;;;;5.70;5.25;;;18.70;41.80;;;;;;6133184;23;20181;-69
2022/03/16 03:31:10;;;;;;;6.10;5.60;;;18.70;41.80;;;;;;6132860;23;20201;-70
2022/03/16 03:33:38;;;;;;;6.35;5.85;;;18.70;41.80;;;;;;6132786;23;20277;-70
2022/03/16 03:36:06;;;;;;;6.18;5.68;;;18.60;41.70;;;;;;6134545;23;20223;-69
2022/03/16 03:38:33;;;;;;;6.57;5.95;;;18.60;41.70;;;;;;6159997;23;20638;-70
2022/03/16 03:41:00;;;;;;;6.35;5.85;;;18.60;42.30;;;;;;6132544;23;20176;-70
2022/03/16 03:43:28;;;;;;;5.85;5.43;;;18.70;41.80;;;;;;6158970;23;20268;-70
2022/03/16 03:45:56;;;;;;;6.43;5.70;;;18.60;41.80;;;;;;6132801;23;20172;-69
2022/03/16 03:48:25;;;;;;;6.40;5.90;;;18.60;41.80;;;;;;6158664;23;20225;-70
2022/03/16 03:50:53;;;;;;;6.38;5.78;;;18.60;41.80;;;;;;6132639;23;20177;-69
2022/03/16 03:53:20;;;;;;;6.85;6.25;;;18.60;41.80;;;;;;6158918;23;20181;-69
2022/03/16 03:55:47;;;;;;;6.47;5.97;;;18.60;41.70;;;;;;6159699;23;20169;-69
2022/03/16 03:58:14;;;;;;;5.70;5.20;;;18.60;41.80;;;;;;6133178;23;20177;-69
2022/03/16 04:00:43;;;;;;;5.53;5.13;;;18.60;41.80;;;;;;6133231;23;20173;-70
2022/03/16 04:03:10;;;;;;;6.25;5.75;;;18.60;41.80;;;;;;6132994;23;20279;-69
2022/03/16 04:05:39;;;;;;;6.82;6.30;;;18.60;41.80;;;;;;6133497;23;20176;-69
2022/03/16 04:08:06;;;;;;;6.22;5.68;;;18.60;42.40;;;;;;6133396;23;20173;-70
2022/03/16 04:10:36;;;;;;;6.38;5.88;;;18.60;41.90;;;;;;6133559;23;20177;-69
2022/03/16 04:13:04;;;;;;;6.55;6.03;;;18.60;41.80;;;;;;6159617;23;20223;-70
2022/03/16 04:15:31;;;;;;;6.72;6.13;;;18.60;41.80;;;;;;6134077;23;20177;-69
2022/03/16 04:17:59;;;;;;;7.18;6.50;;;18.60;41.70;;;;;;6133973;23;20172;-70
2022/03/16 04:20:27;;;;;;;6.97;6.38;;;18.60;41.70;;;;;;6134321;23;20179;-70
2022/03/16 04:22:55;;;;;;;7.50;6.88;;;18.60;41.70;;;;;;6134400;23;20192;-69
2022/03/16 04:25:22;;;;;;;6.28;5.68;;;18.60;41.60;;;;;;6135537;23;20233;-70
2022/03/16 04:27:50;;;;;;;6.68;6.07;;;18.60;41.70;;;;;;6135824;23;20203;-70
2022/03/16 04:30:18;;;;;;;6.60;6.07;;;18.60;42.30;;;;;;6134709;23;20176;-70
2022/03/16 04:32:46;;;;;;;7.07;6.47;;;18.60;41.70;;;;;;6136584;23;20219;-70
2022/03/16 04:35:13;;;;;;;6.68;6.07;;;18.60;41.60;;;;;;6137565;23;20201;-70
2022/03/16 04:37:40;;;;;;;7.70;6.90;;;18.60;41.60;;;;;;6170671;23;20196;-69
2022/03/16 04:40:10;;;;;;;6.90;6.30;;;18.60;41.60;;;;;;6161127;23;20254;-70
2022/03/16 04:42:37;;;;;;;7.15;6.55;;;18.60;41.60;;;;;;6134609;23;20197;-70
2022/03/16 04:45:05;;;;;;;8.75;7.95;;;18.60;41.60;;;;;;6134431;23;20202;-70
2022/03/16 04:47:32;;;;;;;8.05;7.35;;;18.60;41.60;;;;;;6161601;23;20175;-70
2022/03/16 04:50:00;;;;;;;8.00;7.30;;;18.60;41.60;;;;;;6135234;23;20173;-70
2022/03/16 04:52:27;;;;;;;8.98;8.18;;;18.60;41.60;;;;;;6135301;23;20623;-70
2022/03/16 04:54:55;;;;;;;7.75;7.05;;;18.60;41.60;;;;;;6135681;23;20180;-70
2022/03/16 04:57:23;;;;;;;8.57;7.78;;;18.60;41.60;;;;;;6161909;23;20165;-70
2022/03/16 04:59:51;;;;;;;8.10;7.35;;;18.60;41.60;;;;;;6134755;23;20593;-70
2022/03/16 05:02:18;;;;;;;9.20;8.35;;;18.60;41.60;;;;;;6134949;23;20193;-70
2022/03/16 05:04:45;;;;;;;7.75;7.13;;;18.70;41.60;;;;;;6135608;23;20203;-70
2022/03/16 05:07:12;;;;;;;8.88;8.07;;;18.60;41.50;;;;;;6136843;23;20259;-70
2022/03/16 05:09:40;;;;;;;8.57;7.80;;;18.60;41.50;;;;;;6164546;23;20161;-70
2022/03/16 05:12:09;;;;;;;7.97;7.28;;;18.70;41.60;;;;;;6137519;23;20200;-70
2022/03/16 05:14:38;;;;;;;7.90;7.20;;;18.70;41.60;;;;;;6136577;23;20173;-70
2022/03/16 05:17:05;;;;;;;7.38;6.78;;;18.70;41.60;;;;;;6135762;23;20181;-70
2022/03/16 05:19:34;;;;;;;7.43;6.82;;;18.70;41.60;;;;;;6134655;23;20265;-70
2022/03/16 05:22:01;;;;;;;7.63;6.93;;;18.70;42.20;;;;;;6160156;23;20195;-70
2022/03/16 05:24:29;;;;;;;7.57;6.97;;;18.70;41.60;;;;;;6159720;23;20185;-70
2022/03/16 05:26:56;;;;;;;6.57;6.03;;;18.70;41.50;;;;;;6134483;23;20180;-70
2022/03/16 05:29:24;;;;;;;7.72;7.03;;;18.70;41.50;;;;;;6160320;23;20203;-70
2022/03/16 05:31:53;;;;;;;7.90;7.18;;;18.70;41.50;;;;;;6133950;23;20259;-70
2022/03/16 05:34:20;;;;;;;8.32;7.53;;;18.70;41.40;;;;;;6160305;23;20164;-72
2022/03/16 05:36:47;;;;;;;7.30;6.70;;;18.70;41.40;;;;;;6134992;23;20180;-71
2022/03/16 05:39:15;;;;;;;7.55;6.88;;;18.70;41.40;;;;;;6134141;23;20543;-72
2022/03/16 05:44:33;;;;;;;8.00;7.22;;;18.80;41.40;;;;;;6159544;23;20200;-72
2022/03/16 05:47:01;;;;;;;7.93;7.13;;;18.80;41.40;;;;;;6176162;23;20506;-72
2022/03/16 05:49:29;;;;;;;7.05;6.45;;;18.90;41.80;;;;;;6188720;23;20192;-72
2022/03/16 05:51:57;;;;;;;7.90;7.10;;;18.80;41.70;;;;;;6180549;23;20188;-72
2022/03/16 05:54:27;;;;;;;7.85;7.15;;;18.80;41.80;;;;;;6157553;23;20161;-72
2022/03/16 05:56:54;;;;;;;7.15;6.55;;;18.90;41.80;;;;;;6157937;23;20252;-72
2022/03/16 05:59:21;;;;;;;7.75;7.10;;;18.90;41.70;;;;;;6159686;23;20251;-71
2022/03/16 06:01:48;;;;;;;8.98;8.18;;;18.90;41.90;;;;;;6161180;23;20185;-70
2022/03/16 06:04:18;;;;;;;8.10;7.40;;;18.90;41.80;;;;;;6159366;23;20193;-71
2022/03/16 06:06:45;;;;;;;7.70;7.07;;;18.90;41.80;;;;;;6160306;23;20200;-71
2022/03/16 06:09:12;;;;;;;6.75;6.15;;;19.00;41.80;;;;;;6160545;23;20575;-71
2022/03/16 06:11:41;;;;;;;7.85;7.15;;;19.00;41.80;;;;;;6166635;23;20231;-69
2022/03/16 06:14:09;;;;;;;8.10;7.30;;;19.00;41.90;;;;;;6192879;23;20210;-69
2022/03/16 06:16:36;;;;;;;8.85;7.95;;;19.00;41.90;;;;;;6219503;23;20195;-71
2022/03/16 06:19:03;;;;;;;7.80;6.82;;;19.00;41.80;;;;;;6193301;23;20186;-70
2022/03/16 06:21:32;;;;;;;8.00;7.30;;;19.00;41.70;;;;;;6190611;23;20178;-69
2022/03/16 06:24:00;;;;;;;8.40;7.53;;;19.00;41.80;;;;;;6187113;23;20188;-68
2022/03/16 06:26:27;;;;;;;8.10;7.40;;;19.00;41.90;;;;;;6162218;23;20176;-70
2022/03/16 06:28:54;;;;;;;7.38;6.68;;;19.00;41.80;;;;;;6189081;23;20165;-70
2022/03/16 06:31:22;;;;;;;9.30;7.88;;;19.00;41.80;;;;;;6187413;23;20180;-69
2022/03/16 06:33:49;;;;;;;6.75;6.15;;;19.00;41.80;;;;;;6162638;23;20167;-70
2022/03/16 06:36:16;;;;;;;7.53;6.82;;;19.00;41.70;;;;;;6187737;23;20168;-70
2022/03/16 06:38:45;;;;;;;8.40;7.60;;;19.00;41.80;;;;;;6162160;23;20173;-68
2022/03/16 06:41:13;;;;;;;8.45;7.65;;;19.00;41.70;;;;;;6161968;23;20172;-70
2022/03/16 06:43:40;;;;;;;8.85;8.05;;;19.00;41.70;;;;;;6188318;23;20288;-70
2022/03/16 06:46:07;;;;;;;8.70;7.90;;;19.00;41.70;;;;;;6187481;23;20512;-70
2022/03/16 06:48:35;;;;;;;7.88;7.18;;;19.00;41.60;;;;;;6186975;23;20202;-70
2022/03/16 06:51:02;;;;;;;8.00;7.30;;;19.00;41.70;;;;;;6188446;23;20175;-68
2022/03/16 06:53:29;;;;;;;8.95;8.05;;;19.10;41.70;;;;;;6188774;23;20661;-70
2022/03/16 06:55:58;;;;;;;8.85;8.05;;;19.10;41.60;;;;;;6186568;23;20176;-70
2022/03/16 06:58:25;;;;;;;8.77;7.97;;;19.10;41.60;;;;;;6161675;23;20180;-70
2022/03/16 07:00:52;;;;;;;8.55;7.75;;;19.10;41.60;;;;;;6161981;23;20172;-68
2022/03/16 07:03:20;;;;;;;7.30;6.70;;;19.10;41.60;;;;;;6161717;23;20196;-70
2022/03/16 07:05:47;;;;;;;8.98;7.97;;;19.10;41.60;;;;;;6187112;23;20168;-70
2022/03/16 07:08:15;;;;;;;9.18;8.27;;;19.10;41.70;;;;;;6161481;23;20184;-70
2022/03/16 07:10:43;;;;;;;8.40;7.60;;;19.10;41.70;;;;;;6161528;23;20649;-70
2022/03/16 07:13:13;;;;;;;9.55;8.65;;;19.10;41.60;;;;;;6187786;23;20198;-70
2022/03/16 07:15:40;;;;;;;9.02;8.13;;;19.10;41.80;;;;;;6161579;23;20571;-70
2022/03/16 07:18:07;;;;;;;9.00;8.10;;;19.10;41.60;;;;;;6186980;23;20172;-70
2022/03/16 07:20:34;;;;;;;9.13;8.23;;;19.10;41.60;;;;;;6188283;23;20168;-69
2022/03/16 07:23:03;;;;;;;8.77;7.97;;;19.10;41.60;;;;;;6188435;23;20188;-70
2022/03/16 07:25:30;;;;;;;8.88;8.07;;;19.10;41.70;;;;;;6188341;23;20310;-69
2022/03/16 07:27:57;;;;;;;9.43;8.52;;;19.10;41.60;;;;;;6188712;23;20175;-68
2022/03/16 07:30:26;;;;;;;9.65;8.65;;;19.10;41.60;;;;;;6188515;23;20334;-70
2022/03/16 07:32:53;;;;;;;9.05;8.10;;;19.10;41.60;;;;;;6161591;23;20198;-70
2022/03/16 07:35:26;;;;;;;9.15;8.25;;;19.20;41.70;;;;;;6186840;23;20173;-69
2022/03/16 07:37:54;;;;;;;9.00;8.10;;;19.20;41.40;;;;;;6186239;23;20190;-70
2022/03/16 07:40:21;;;;;;;8.85;8.05;;;19.20;41.40;;;;;;6187706;23;20168;-70
2022/03/16 07:42:49;;;;;;;9.75;8.50;;;19.20;41.40;;;;;;6160849;23;20216;-69
2022/03/16 07:45:18;;;;;;;10.35;9.35;;;19.20;41.30;;;;;;6187535;23;20184;-70
2022/03/16 07:47:47;;;;;;;9.45;8.45;;;19.20;41.30;;;;;;6186130;23;20203;-70
2022/03/16 07:50:18;;;;;;;8.65;7.75;;;19.20;41.20;;;;;;6186071;23;20176;-70
2022/03/16 07:52:46;;;;;;;8.80;7.93;;;19.20;41.10;;;;;;6161195;23;20667;-70
2022/03/16 07:55:14;;;;;;;8.73;7.85;;;19.20;41.00;;;;;;6187992;23;20161;-70
2022/03/16 07:57:43;;;;;;;8.48;7.68;;;19.20;41.10;;;;;;6186320;23;20518;-70
2022/03/16 08:00:14;;;;;;;9.15;7.90;;;19.20;41.00;;;;;;6161912;23;20208;-69
2022/03/16 08:02:43;;;;;;;9.13;8.23;;;19.20;40.90;;;;;;6188486;23;20183;-68
2022/03/16 08:05:13;;;;;;;9.25;8.35;;;19.30;41.00;;;;;;6189061;23;20180;-69
2022/03/16 08:07:40;;;;;;;8.85;7.95;;;19.30;41.00;;;;;;6162515;23;20230;-70
2022/03/16 08:10:08;;;;;;;8.55;7.75;;;19.30;41.00;;;;;;6162320;23;20644;-70
2022/03/16 08:12:36;;;;;;;8.93;8.13;;;19.30;41.10;;;;;;6160993;23;20214;-70
2022/03/16 08:15:03;;;;;;;9.30;8.32;;;19.30;41.00;;;;;;6171793;23;20172;-68
2022/03/16 08:17:32;;;;;;;8.30;7.30;;;19.30;40.90;;;;;;6199223;23;20180;-70
2022/03/16 08:19:59;;;;;;;9.13;8.13;;;19.30;40.90;;;;;;6162613;23;20296;-70
2022/03/16 08:22:29;;;;;;;9.25;8.43;;;19.30;40.80;;;;;;6187114;23;20650;-70
2022/03/16 08:24:56;;;;;;;8.93;8.02;;;19.30;40.80;;;;;;6187270;23;20234;-70
2022/03/16 08:27:26;;;;;;;8.43;7.55;;;19.30;40.70;;;;;;6160418;23;20172;-70
2022/03/16 08:29:53;;;;;;;8.45;7.65;;;19.30;40.70;;;;;;6160088;23;20164;-70
2022/03/16 08:32:21;;;;;;;8.43;7.63;;;19.30;40.70;;;;;;6184809;23;20596;-70
2022/03/16 08:34:48;;;;;;;8.95;8.07;;;19.30;40.70;;;;;;6186472;23;20172;-70
2022/03/16 08:37:17;;;;;;;9.45;8.55;;;19.30;40.70;;;;;;6159977;23;20558;-70
2022/03/16 08:39:46;;;;;;;8.93;8.13;;;19.30;41.30;;;;;;6185096;23;20176;-70
2022/03/16 08:42:14;;;;;;;7.88;7.18;;;19.30;40.70;;;;;;6159795;23;20262;-70
2022/03/16 08:44:42;;;;;;;8.38;7.57;;;19.30;40.70;;;;;;6160435;23;20211;-70
2022/03/16 08:47:10;;;;;;;7.70;6.95;;;19.30;40.70;;;;;;6159833;23;20176;-70
2022/03/16 08:49:38;;;;;;;8.40;7.50;;;19.40;40.80;;;;;;6160135;23;20172;-70
2022/03/16 08:52:07;;;;;;;7.97;7.15;;;19.40;40.80;;;;;;6186761;23;20195;-70
2022/03/16 08:54:35;;;;;;;7.55;6.85;;;19.40;40.80;;;;;;6186572;23;20172;-69
2022/03/16 08:57:10;;;;;;;8.18;7.40;;;19.40;40.70;;;;;;6185995;23;20232;-70
2022/03/16 08:59:38;;;;;;;8.75;7.82;;;19.40;40.70;;;;;;6185704;23;20168;-69
2022/03/16 09:02:05;;;;;;;8.75;7.95;;;19.40;40.70;;;;;;6160605;23;20225;-70
2022/03/16 09:04:34;;;;;;;8.27;7.47;;;19.40;40.60;;;;;;6187636;23;20205;-70
2022/03/16 09:07:02;;;;;;;8.45;7.68;;;19.40;40.50;;;;;;6161776;23;20259;-69
2022/03/16 09:09:29;;;;;;;8.25;7.50;;;19.40;40.50;;;;;;6160242;23;20168;-70
2022/03/16 09:11:56;;;;;;;8.43;7.65;;;19.40;40.50;;;;;;6096200;23;1499036;-70
2022/03/16 09:14:25;;;;;;;7.82;7.13;;;19.50;40.50;;;;;;6166140;23;20168;-70
2022/03/16 09:16:53;;;;;;;7.90;7.15;;;19.50;40.40;;;;;;6193086;23;20191;-70
2022/03/16 09:19:21;;;;;;;7.53;6.82;;;19.50;40.50;;;;;;6190435;23;20196;-70
2022/03/16 09:21:49;;;;;;;8.52;7.82;;;19.50;40.40;;;;;;6166150;23;20196;-71
2022/03/16 09:24:17;;;;;;;8.57;7.78;;;19.50;40.40;;;;;;6167230;23;20729;-70
2022/03/16 09:26:45;;;;;;;7.82;7.13;;;19.50;40.40;;;;;;6166109;23;20172;-72
2022/03/16 09:29:13;;;;;;;8.63;7.85;;;19.50;40.40;;;;;;6189335;23;20176;-70
2022/03/16 09:31:44;;;;;;;7.75;6.82;;;19.50;40.30;;;;;;6189669;23;20192;-68
2022/03/16 09:34:12;;;;;;;8.15;7.45;;;19.50;40.30;;;;;;6166473;23;20224;-70
2022/03/16 09:36:45;;;;;;;8.35;7.55;;;19.50;40.20;;;;;;6193010;23;20554;-70
2022/03/16 09:39:13;;;;;;;7.55;6.85;;;19.60;40.30;;;;;;6164401;23;20187;-70
2022/03/16 09:41:41;;;;;;;8.90;8.10;;;19.60;40.30;;;;;;6165396;23;20562;-70
2022/03/16 09:44:08;;;;;;;7.97;7.28;;;19.60;40.30;;;;;;6188773;23;20223;-70
2022/03/16 09:46:36;;;;;;;7.05;6.45;;;19.60;40.30;;;;;;6189952;23;20164;-69
2022/03/16 09:49:06;;;;;;;7.88;7.10;;;19.60;40.10;;;;;;6163485;23;20223;-69
2022/03/16 09:51:38;;;;;;;7.38;6.75;;;19.60;40.10;;;;;;6163705;23;20175;-70
2022/03/16 09:54:06;;;;;;;8.10;7.40;;;19.70;40.10;;;;;;6189325;23;20165;-70
2022/03/16 09:56:34;;;;;;;7.45;6.75;;;19.70;40.00;;;;;;6190711;23;20183;-70
2022/03/16 09:59:02;;;;;;;6.88;6.28;;;19.70;39.90;;;;;;6191136;23;20168;-70
2022/03/16 10:01:29;;;;;;;8.50;7.80;;;19.80;39.80;;;;;;6187970;23;20176;-68
2022/03/16 10:03:59;;;;;;;7.15;6.45;;;19.80;39.80;;;;;;6162167;23;20176;-69
2022/03/16 10:06:28;;;;;;;7.97;7.28;;;19.80;39.60;;;;;;6188001;23;20172;-69
2022/03/16 10:14:28;;;;;;;6.07;5.50;;;19.90;39.60;;;;;;6138721;23;20179;-70
2022/03/16 10:19:49;;;;;;;8.05;7.35;;;19.90;39.30;;;;;;6162397;23;20594;-68
2022/03/16 10:22:26;;;;;;;7.68;6.97;;;19.90;39.80;;;;;;6188526;23;20650;-68
2022/03/16 10:24:59;;;;;;;7.40;6.70;;;20.00;39.20;;;;;;6188400;23;20188;-68
2022/03/16 10:27:26;;;;;;;6.82;6.13;;;19.90;39.10;;;;;;6188471;23;20153;-68
2022/03/16 10:29:54;;;;;;;7.60;6.90;;;20.00;39.00;;;;;;6186382;23;20168;-68
2022/03/16 10:32:22;;;;;;;7.05;6.45;;;20.00;39.00;;;;;;6161874;23;20502;-68
2022/03/16 10:34:51;;;;;;;6.05;5.55;;;20.00;39.00;;;;;;6188340;23;20470;-68
2022/03/16 10:37:19;;;;;;;7.40;6.75;;;20.10;38.90;;;;;;6161642;23;20229;-67
2022/03/16 10:39:48;;;;;;;6.90;6.20;;;20.10;39.40;;;;;;6186784;23;20230;-68
2022/03/16 10:47:58;;;;;;;6.13;5.53;;;20.30;38.50;;;;;;6162693;23;20172;-66
2022/03/16 10:50:25;;;;;;;6.82;6.13;;;20.30;38.40;;;;;;6188363;23;20172;-68
2022/03/16 10:52:56;;;;;;;5.90;5.40;;;20.40;38.30;;;;;;6186501;23;20188;-68
2022/03/16 10:55:26;;;;;;;6.72;6.20;;;20.50;38.30;;;;;;6186666;23;20489;-68
2022/03/16 10:57:54;;;;;;;7.03;6.40;;;20.50;38.20;;;;;;6185981;23;20264;-68
2022/03/16 11:00:22;;;;;;;6.60;6.07;;;20.50;38.20;;;;;;6161368;23;20172;-68
2022/03/16 11:02:50;;;;;;;6.28;5.78;;;20.60;38.20;;;;;;6161018;23;20251;-66
2022/03/16 11:05:18;;;;;;;5.97;5.47;;;20.60;38.00;;;;;;6161403;23;20199;-66
2022/03/16 11:07:48;;;;;;;5.93;5.43;;;20.60;37.90;;;;;;6186112;23;20172;-68
2022/03/16 11:10:18;;;;;;;6.07;5.57;;;20.70;38.60;;;;;;6161831;23;20173;-69
2022/03/16 11:15:32;;;;;;;5.70;5.30;;;20.80;37.90;;;;;;6161562;23;20164;-69
2022/03/16 11:18:05;;;;;;;6.30;5.75;;;20.80;37.80;;;;;;6187866;23;20148;-69
2022/03/16 11:20:33;;;;;;;6.28;5.75;;;20.80;37.80;;;;;;6187719;23;20509;-69
2022/03/16 11:25:54;;;;;;;4.82;4.43;;;20.90;37.60;;;;;;6161299;23;20284;-69
2022/03/16 11:28:32;;;;;;;5.80;5.30;;;20.90;37.70;;;;;;6187003;23;20498;-69
2022/03/16 11:31:00;;;;;;;4.80;4.40;;;21.00;37.80;;;;;;6185977;23;20180;-67
2022/03/16 11:33:27;;;;;;;5.65;5.25;;;20.90;37.60;;;;;;6161460;23;20196;-69
2022/03/16 11:35:56;;;;;;;5.63;5.22;;;20.90;38.20;;;;;;6188076;23;20211;-69
2022/03/16 11:38:23;;;;;;;6.25;5.75;;;21.00;37.50;;;;;;6162102;23;20203;-69
2022/03/16 11:40:51;;;;;;;6.07;5.57;;;21.00;37.50;;;;;;6169880;23;20199;-55
2022/03/16 11:43:21;;;;;;;6.15;5.57;;;21.10;37.60;;;;;;6202462;23;20261;-55
2022/03/16 11:45:54;;;;;;;5.78;5.28;;;21.10;37.60;;;;;;6159967;23;20192;-55
2022/03/16 11:48:41;;;;;;;5.90;5.38;;;21.10;37.30;;;;;;6185042;23;20172;-55
2022/03/16 11:51:23;;;;;;;6.70;6.10;;;21.10;37.30;;;;;;6160982;23;20222;-55
2022/03/16 11:54:09;;;;;;;6.30;5.70;;;21.10;37.30;;;;;;6186347;23;20662;-55
2022/03/16 11:56:53;;;;;;;5.22;4.82;;;21.10;37.40;;;;;;6159924;23;20168;-55
2022/03/16 11:59:45;;;;;;;6.70;6.10;;;21.10;37.30;;;;;;6157703;23;20586;-55
2022/03/16 12:02:28;;;;;;;5.95;5.45;;;21.10;37.20;;;;;;6184377;23;20539;-55
2022/03/16 12:05:03;;;;;;;5.32;4.82;;;21.10;37.30;;;;;;6186540;23;20482;-55
2022/03/16 12:07:35;;;;;;;5.93;5.43;;;21.10;37.30;;;;;;6186566;23;20168;-55
2022/03/16 12:10:08;;;;;;;5.38;4.97;;;21.10;37.40;;;;;;6185005;23;20182;-55
2022/03/16 12:12:51;;;;;;;6.32;5.72;;;21.10;37.30;;;;;;6155574;23;20287;-66
2022/03/16 12:15:29;;;;;;;6.00;5.50;;;21.10;37.30;;;;;;6132765;23;20169;-67
2022/03/16 12:18:21;;;;;;;6.10;5.50;;;21.10;37.40;;;;;;6158821;23;20149;-66
2022/03/16 12:20:53;;;;;;;5.60;5.20;;;21.10;37.40;;;;;;6132055;23;20168;-67
2022/03/16 12:23:54;;;;;;;5.95;5.45;;;21.10;37.30;;;;;;6158084;23;20247;-67
2022/03/16 12:26:24;;;;;;;5.50;5.10;;;21.10;37.50;;;;;;6131437;23;20196;-67
2022/03/16 12:28:58;;;;;;;5.57;5.13;;;21.10;37.50;;;;;;6131221;23;20201;-67
2022/03/16 12:31:25;;;;;;;5.47;4.95;;;21.00;37.50;;;;;;6131475;23;20158;-67
2022/03/16 12:33:56;;;;;;;5.82;5.32;;;21.00;37.50;;;;;;6131412;23;20639;-67
2022/03/16 12:36:25;;;;;;;5.47;5.07;;;21.00;37.50;;;;;;6157689;23;20153;-66
2022/03/16 12:38:53;;;;;;;5.68;5.18;;;21.00;37.50;;;;;;6158077;23;20239;-67
2022/03/16 12:44:08;;;;;;;5.80;5.30;;;21.00;37.50;;;;;;6131301;23;20666;-66
2022/03/16 12:46:41;;;;;;;5.93;5.43;;;21.00;37.50;;;;;;6157943;23;20173;-66
2022/03/16 12:49:11;;;;;;;5.30;4.75;;;21.00;37.50;;;;;;6157451;23;20596;-67
2022/03/16 12:51:39;;;;;;;4.38;4.07;;;20.90;37.50;;;;;;6131907;23;20168;-67
2022/03/16 12:54:07;;;;;;;4.82;4.43;;;20.90;37.60;;;;;;6131019;23;20255;-67
2022/03/16 12:56:38;;;;;;;5.30;4.90;;;20.90;37.70;;;;;;6131188;23;20169;-67
2022/03/16 12:59:06;;;;;;;5.03;4.63;;;20.90;37.70;;;;;;6132302;23;20177;-67
2022/03/16 13:01:33;;;;;;;4.85;4.45;;;20.90;37.70;;;;;;6131140;23;20176;-67
2022/03/16 13:04:01;;;;;;;5.97;5.50;;;20.90;37.80;;;;;;6130836;23;20199;-67
2022/03/16 13:06:33;;;;;;;6.03;5.43;;;20.90;37.70;;;;;;6157024;23;20180;-67
2022/03/16 13:09:02;;;;;;;6.43;5.82;;;20.90;37.70;;;;;;6131257;23;20176;-67
2022/03/16 13:11:30;;;;;;;5.55;5.05;;;20.90;37.70;;;;;;6130872;23;20223;-67
2022/03/16 13:14:02;;;;;;;6.28;5.68;;;20.90;37.60;;;;;;6156949;23;20599;-68
2022/03/16 13:16:35;;;;;;;5.53;5.03;;;20.90;37.60;;;;;;6131376;23;20567;-67
2022/03/16 13:19:03;;;;;;;5.38;4.88;;;21.00;37.60;;;;;;6130520;23;20204;-67